createdAt,value
2023-01-26T00:01:13.428Z,10.27
2023-01-26T00:03:40.566Z,10.80
2023-01-26T00:06:09.340Z,11.23
2023-01-26T00:08:38.746Z,11.13
2023-01-26T00:11:07.093Z,10.88
2023-01-26T00:13:34.410Z,10.80
2023-01-26T00:16:02.226Z,11.00
2023-01-26T00:18:29.624Z,11.38
2023-01-26T00:20:58.038Z,11.73
2023-01-26T00:23:25.721Z,11.90
2023-01-26T00:25:52.526Z,11.70
2023-01-26T00:28:19.291Z,11.27
2023-01-26T00:30:46.293Z,11.48
2023-01-26T00:33:13.157Z,10.52
2023-01-26T00:35:44.310Z,11.23
2023-01-26T00:38:12.395Z,11.85
2023-01-26T00:40:39.936Z,12.80
2023-01-26T00:43:07.156Z,11.95
2023-01-26T00:45:35.457Z,11.90
2023-01-26T00:48:02.239Z,12.55
2023-01-26T00:50:28.943Z,11.18
2023-01-26T00:52:55.695Z,12.32
2023-01-26T00:55:22.428Z,10.23
2023-01-26T00:57:49.998Z,11.60
2023-01-26T01:00:17.541Z,11.65
2023-01-26T01:02:44.369Z,11.68
2023-01-26T01:05:11.779Z,12.25
2023-01-26T01:07:38.488Z,12.57
2023-01-26T01:10:05.509Z,11.45
2023-01-26T01:12:32.290Z,12.23
2023-01-26T01:14:59.020Z,11.93
2023-01-26T01:17:25.788Z,12.02
2023-01-26T01:19:52.418Z,11.82
2023-01-26T01:22:19.181Z,12.38
2023-01-26T01:24:45.851Z,11.98
2023-01-26T01:27:12.576Z,11.20
2023-01-26T01:29:42.124Z,11.38
2023-01-26T01:32:08.881Z,10.57
2023-01-26T01:34:35.593Z,10.82
2023-01-26T01:37:02.328Z,10.48
2023-01-26T01:39:29.158Z,9.77
2023-01-26T01:41:55.871Z,10.52
2023-01-26T01:44:24.995Z,9.85
2023-01-26T01:47:00.175Z,10.77
2023-01-26T01:49:30.320Z,9.65
2023-01-26T01:52:08.195Z,9.90
2023-01-26T01:54:48.818Z,10.15
2023-01-26T01:57:27.761Z,9.48
2023-01-26T02:00:04.117Z,9.48
2023-01-26T02:02:31.116Z,9.05
2023-01-26T02:05:00.905Z,10.20
2023-01-26T02:07:30.820Z,9.10
2023-01-26T02:10:17.972Z,9.27
2023-01-26T02:12:46.312Z,9.48
2023-01-26T02:15:13.599Z,9.73
2023-01-26T02:17:40.878Z,9.55
2023-01-26T02:20:28.623Z,9.48
2023-01-26T02:23:15.196Z,9.70
2023-01-26T02:25:51.977Z,10.30
2023-01-26T02:28:22.072Z,9.98
2023-01-26T02:30:49.564Z,9.60
2023-01-26T02:33:29.030Z,10.25
2023-01-26T02:35:55.685Z,9.85
2023-01-26T02:38:24.863Z,9.77
2023-01-26T02:41:04.636Z,9.55
2023-01-26T02:43:32.992Z,10.20
2023-01-26T02:46:00.008Z,10.38
2023-01-26T02:48:46.700Z,9.90
2023-01-26T02:51:13.455Z,9.82
2023-01-26T02:53:40.250Z,9.93
2023-01-26T02:56:07.200Z,9.13
2023-01-26T02:58:34.053Z,10.25
2023-01-26T03:01:00.767Z,9.73
2023-01-26T03:03:41.573Z,9.82
2023-01-26T03:06:10.500Z,10.85
2023-01-26T03:08:38.092Z,10.18
2023-01-26T03:11:06.478Z,11.05
2023-01-26T03:13:33.167Z,10.20
2023-01-26T03:16:06.728Z,10.25
2023-01-26T03:18:54.984Z,10.13
2023-01-26T03:21:42.238Z,10.40
2023-01-26T03:24:31.743Z,10.27
2023-01-26T03:27:18.688Z,10.88
2023-01-26T03:29:45.580Z,9.45
2023-01-26T03:32:12.879Z,10.18
2023-01-26T03:34:39.579Z,9.30
2023-01-26T03:37:06.629Z,10.57
2023-01-26T03:39:53.220Z,9.93
2023-01-26T03:42:39.803Z,9.93
2023-01-26T03:45:27.267Z,9.32
2023-01-26T03:48:22.517Z,8.93
2023-01-26T03:51:09.103Z,8.50
2023-01-26T03:53:55.869Z,8.80
2023-01-26T03:56:23.003Z,9.10
2023-01-26T03:58:52.862Z,8.13
2023-01-26T04:01:21.500Z,8.60
2023-01-26T04:04:09.448Z,8.55
2023-01-26T04:06:57.747Z,8.65
2023-01-26T04:09:24.476Z,8.40
2023-01-26T04:11:51.154Z,8.50
2023-01-26T04:14:48.906Z,9.10
2023-01-26T04:17:36.566Z,8.35
2023-01-26T04:20:24.026Z,8.88
2023-01-26T04:22:50.793Z,8.57
2023-01-26T04:25:20.131Z,9.00
2023-01-26T04:27:47.134Z,8.87
2023-01-26T04:30:19.102Z,8.80
2023-01-26T04:32:46.269Z,8.75
2023-01-26T04:35:13.410Z,9.25
2023-01-26T04:37:40.383Z,8.65
2023-01-26T04:40:08.006Z,8.70
2023-01-26T04:42:35.036Z,9.55
2023-01-26T04:45:01.904Z,8.27
2023-01-26T04:47:29.504Z,8.47
2023-01-26T04:49:56.349Z,8.13
2023-01-26T04:52:23.058Z,8.38
2023-01-26T04:54:49.821Z,9.02
2023-01-26T04:57:16.654Z,8.43
2023-01-26T04:59:43.390Z,8.30
2023-01-26T05:02:10.776Z,8.65
2023-01-26T05:04:37.704Z,8.63
2023-01-26T05:07:04.487Z,8.50
2023-01-26T05:09:31.312Z,8.05
2023-01-26T05:12:17.903Z,8.70
2023-01-26T05:14:44.616Z,8.77
2023-01-26T05:17:11.240Z,9.00
2023-01-26T05:19:37.939Z,8.83
2023-01-26T05:22:04.657Z,8.75
2023-01-26T05:24:31.347Z,8.07
2023-01-26T05:27:17.934Z,8.35
2023-01-26T05:29:44.623Z,8.20
2023-01-26T05:32:11.424Z,8.60
2023-01-26T05:34:38.396Z,8.40
2023-01-26T05:37:05.595Z,8.27
2023-01-26T05:39:32.335Z,7.60
2023-01-26T05:41:58.993Z,8.52
2023-01-26T05:44:25.770Z,8.35
2023-01-26T05:46:52.903Z,8.02
2023-01-26T05:49:19.601Z,7.88
2023-01-26T05:51:46.305Z,7.50
2023-01-26T05:54:13.021Z,7.22
2023-01-26T05:56:39.714Z,6.90
2023-01-26T05:59:06.433Z,7.72
2023-01-26T06:01:33.115Z,7.63
2023-01-26T06:03:59.780Z,7.63
2023-01-26T06:06:26.570Z,8.32
2023-01-26T06:08:53.255Z,8.57
2023-01-26T06:11:19.922Z,7.97
2023-01-26T06:13:46.514Z,8.80
2023-01-26T06:16:13.221Z,8.10
2023-01-26T06:18:39.903Z,7.72
2023-01-26T06:21:06.589Z,8.07
2023-01-26T06:23:33.263Z,8.15
2023-01-26T06:26:01.420Z,8.43
2023-01-26T06:28:29.997Z,8.30
2023-01-26T06:31:05.918Z,8.57
2023-01-26T06:33:35.131Z,8.70
2023-01-26T06:36:06.516Z,8.82
2023-01-26T06:38:33.481Z,8.37
2023-01-26T06:41:03.378Z,8.55
2023-01-26T06:43:31.119Z,8.77
2023-01-26T06:45:58.941Z,9.05
2023-01-26T06:48:27.482Z,8.60
2023-01-26T06:50:57.155Z,8.70
2023-01-26T06:53:33.059Z,8.10
2023-01-26T06:55:59.832Z,7.40
2023-01-26T06:58:26.531Z,7.80
2023-01-26T07:00:53.349Z,7.70
2023-01-26T07:03:19.997Z,7.40
2023-01-26T07:05:46.696Z,7.57
2023-01-26T07:08:13.406Z,7.30
2023-01-26T07:10:40.146Z,7.85
2023-01-26T07:13:07.845Z,7.30
2023-01-26T07:15:36.270Z,7.70
2023-01-26T07:18:03.046Z,7.28
2023-01-26T07:20:29.747Z,6.97
2023-01-26T07:22:56.557Z,6.90
2023-01-26T07:25:23.423Z,7.68
2023-01-26T07:27:56.306Z,6.47
2023-01-26T07:30:23.339Z,7.45
2023-01-26T07:32:50.096Z,6.97
2023-01-26T07:35:16.943Z,7.60
2023-01-26T07:37:43.791Z,7.43
2023-01-26T07:40:11.467Z,7.78
2023-01-26T07:42:38.304Z,7.75
2023-01-26T07:45:05.461Z,7.05
2023-01-26T07:47:32.066Z,7.07
2023-01-26T07:49:58.781Z,7.03
2023-01-26T07:52:26.571Z,7.03
2023-01-26T07:54:53.328Z,7.13
2023-01-26T07:57:20.028Z,7.10
2023-01-26T07:59:46.704Z,7.15
2023-01-26T08:02:13.466Z,7.53
2023-01-26T08:04:40.179Z,6.97
2023-01-26T08:07:06.856Z,6.97
2023-01-26T08:09:33.694Z,7.30
2023-01-26T08:12:00.556Z,6.25
2023-01-26T08:14:38.195Z,6.93
2023-01-26T08:17:11.948Z,7.20
2023-01-26T08:19:38.649Z,6.47
2023-01-26T08:22:05.340Z,6.40
2023-01-26T08:24:31.992Z,6.47
2023-01-26T08:26:58.532Z,5.95
2023-01-26T08:29:25.185Z,6.60
2023-01-26T08:31:51.884Z,6.43
2023-01-26T08:34:18.543Z,6.78
2023-01-26T08:36:45.208Z,6.25
2023-01-26T08:39:11.752Z,6.50
2023-01-26T08:41:39.421Z,6.95
2023-01-26T08:44:06.512Z,6.78
2023-01-26T08:46:33.345Z,6.90
2023-01-26T08:49:00.569Z,6.40
2023-01-26T08:51:27.437Z,6.38
2023-01-26T08:53:54.703Z,6.68
2023-01-26T08:56:21.653Z,6.90
2023-01-26T08:58:48.591Z,6.38
2023-01-26T09:01:16.670Z,6.65
2023-01-26T09:03:44.577Z,6.57
2023-01-26T09:06:14.591Z,6.93
2023-01-26T09:08:41.761Z,6.65
2023-01-26T09:11:09.392Z,7.38
2023-01-26T09:13:37.336Z,6.60
2023-01-26T09:16:06.216Z,6.93
2023-01-26T09:18:33.603Z,6.80
2023-01-26T09:21:05.570Z,6.32
2023-01-26T09:23:33.590Z,6.28
2023-01-26T09:26:00.694Z,5.90
2023-01-26T09:28:27.640Z,6.10
2023-01-26T09:30:54.523Z,6.43
2023-01-26T09:33:22.926Z,6.15
2023-01-26T09:35:50.064Z,6.22
2023-01-26T09:38:16.805Z,6.32
2023-01-26T09:40:59.083Z,6.40
2023-01-26T09:43:39.510Z,6.18
2023-01-26T09:46:36.224Z,6.20
2023-01-26T09:49:02.862Z,6.20
2023-01-26T09:51:41.853Z,6.05
2023-01-26T09:54:38.250Z,5.68
2023-01-26T09:57:14.659Z,6.00
2023-01-26T09:59:47.287Z,5.78
2023-01-26T10:02:40.762Z,5.40
2023-01-26T10:05:28.599Z,5.50
2023-01-26T10:07:55.356Z,5.55
2023-01-26T10:10:28.141Z,5.53
2023-01-26T10:12:55.597Z,5.35
2023-01-26T10:15:38.982Z,5.57
2023-01-26T10:18:12.013Z,5.65
2023-01-26T10:20:43.987Z,5.68
2023-01-26T10:23:21.962Z,5.60
2023-01-26T10:25:51.670Z,5.72
2023-01-26T10:28:27.252Z,5.53
2023-01-26T10:30:54.288Z,5.47
2023-01-26T10:33:27.888Z,5.43
2023-01-26T10:35:54.936Z,6.60
2023-01-26T10:38:37.276Z,6.45
2023-01-26T10:41:06.664Z,6.32
2023-01-26T10:43:40.512Z,5.88
2023-01-26T10:46:23.073Z,6.38
2023-01-26T10:48:54.296Z,6.30
2023-01-26T10:51:27.503Z,6.53
2023-01-26T10:54:14.913Z,6.78
2023-01-26T10:56:47.792Z,7.35
2023-01-26T10:59:39.232Z,8.07
2023-01-26T11:02:14.240Z,8.00
2023-01-26T11:04:42.116Z,8.32
2023-01-26T11:07:27.342Z,8.93
2023-01-26T11:09:55.158Z,8.18
2023-01-26T11:12:25.343Z,7.47
2023-01-26T11:15:20.429Z,8.60
2023-01-26T11:18:12.124Z,8.02
2023-01-26T11:20:58.816Z,7.63
2023-01-26T11:23:58.483Z,8.35
2023-01-26T11:27:04.281Z,8.93
2023-01-26T11:29:39.495Z,9.55
2023-01-26T11:32:23.945Z,8.98
2023-01-26T11:35:05.451Z,8.50
2023-01-26T11:37:56.780Z,8.88
2023-01-26T11:40:43.397Z,8.90
2023-01-26T11:43:36.510Z,9.23
2023-01-26T11:46:24.167Z,9.80
2023-01-26T11:49:03.334Z,9.95
2023-01-26T11:51:58.524Z,9.50
2023-01-26T11:54:39.089Z,9.35
2023-01-26T11:57:22.414Z,9.65
2023-01-26T11:59:58.158Z,9.45
2023-01-26T12:02:32.082Z,9.63
2023-01-26T12:05:03.525Z,9.98
2023-01-26T12:07:51.071Z,9.90
2023-01-26T12:10:22.962Z,9.57
2023-01-26T12:12:58.255Z,9.57
2023-01-26T12:15:32.934Z,9.55
2023-01-26T12:18:20.408Z,9.85
2023-01-26T12:20:56.632Z,9.93
2023-01-26T12:23:46.974Z,9.70
2023-01-26T12:26:16.837Z,9.90
2023-01-26T12:28:43.496Z,8.70
2023-01-26T12:31:11.208Z,9.30
2023-01-26T12:33:38.322Z,9.82
2023-01-26T12:36:25.454Z,8.80
2023-01-26T12:39:08.042Z,8.75
2023-01-26T12:41:43.839Z,8.90
2023-01-26T12:44:46.302Z,8.90
2023-01-26T12:47:21.563Z,8.52
2023-01-26T12:49:55.698Z,8.38
2023-01-26T12:52:29.376Z,8.50
2023-01-26T12:55:04.856Z,8.57
2023-01-26T12:57:37.908Z,8.75
2023-01-26T13:00:17.541Z,9.10
2023-01-26T13:02:48.099Z,8.52
2023-01-26T13:05:33.839Z,9.30
2023-01-26T13:08:39.656Z,8.93
2023-01-26T13:11:08.353Z,8.77
2023-01-26T13:13:54.980Z,9.48
2023-01-26T13:16:23.621Z,9.75
2023-01-26T13:18:53.648Z,10.68
2023-01-26T13:21:40.441Z,9.63
2023-01-26T13:24:23.753Z,10.23
2023-01-26T13:26:53.032Z,10.38
2023-01-26T13:29:32.733Z,10.45
2023-01-26T13:32:19.311Z,10.45
2023-01-26T13:34:54.442Z,10.32
2023-01-26T13:37:48.923Z,10.57
2023-01-26T13:40:34.493Z,11.48
2023-01-26T13:43:14.601Z,11.33
2023-01-26T13:46:08.541Z,10.52
2023-01-26T13:48:46.195Z,10.80
2023-01-26T13:51:17.296Z,11.85
2023-01-26T13:53:48.819Z,12.23
2023-01-26T13:56:27.959Z,11.45
2023-01-26T13:59:03.111Z,12.45
2023-01-26T14:01:31.787Z,12.95
2023-01-26T14:04:07.437Z,13.13
2023-01-26T14:06:37.165Z,12.05
2023-01-26T14:09:05.301Z,12.32
2023-01-26T14:11:33.793Z,12.60
2023-01-26T14:14:02.022Z,12.85
2023-01-26T14:16:32.307Z,12.47
2023-01-26T14:19:16.273Z,13.38
2023-01-26T14:21:56.773Z,13.23
2023-01-26T14:24:41.128Z,13.32
2023-01-26T14:27:38.561Z,13.65
2023-01-26T14:30:25.527Z,13.27
2023-01-26T14:33:02.645Z,13.45
2023-01-26T14:35:29.457Z,13.73
2023-01-26T14:38:11.711Z,13.77
2023-01-26T14:40:47.943Z,14.02
2023-01-26T14:43:15.640Z,14.60
2023-01-26T14:45:53.358Z,14.45
2023-01-26T14:48:25.030Z,13.73
2023-01-26T14:50:52.276Z,14.48
2023-01-26T14:53:24.385Z,14.68
2023-01-26T14:55:52.629Z,16.02
2023-01-26T14:58:30.349Z,16.17
2023-01-26T15:00:59.302Z,16.58
2023-01-26T15:03:36.414Z,15.82
2023-01-26T15:06:07.084Z,14.93
2023-01-26T15:08:41.119Z,14.37
2023-01-26T15:11:28.817Z,14.98
2023-01-26T15:13:56.424Z,14.30
2023-01-26T15:16:25.643Z,14.10
2023-01-26T15:19:22.938Z,14.70
2023-01-26T15:21:50.528Z,14.32
2023-01-26T15:24:17.514Z,14.82
2023-01-26T15:26:44.587Z,13.77
2023-01-26T15:29:26.396Z,15.20
2023-01-26T15:31:55.971Z,15.07
2023-01-26T15:34:40.479Z,14.43
2023-01-26T15:37:28.680Z,15.52
2023-01-26T15:39:55.435Z,14.07
2023-01-26T15:42:24.821Z,14.13
2023-01-26T15:44:51.488Z,14.50
2023-01-26T15:47:18.179Z,15.65
2023-01-26T15:49:44.949Z,14.63
2023-01-26T15:52:14.929Z,15.10
2023-01-26T15:54:41.976Z,13.60
2023-01-26T15:57:11.320Z,12.80
2023-01-26T15:59:39.204Z,12.47
2023-01-26T16:02:14.247Z,11.80
2023-01-26T16:04:41.391Z,12.07
2023-01-26T16:07:18.304Z,13.18
2023-01-26T16:09:45.407Z,12.90
2023-01-26T16:12:30.407Z,13.85
2023-01-26T16:14:58.199Z,13.55
2023-01-26T16:17:24.973Z,14.57
2023-01-26T16:19:51.667Z,12.55
2023-01-26T16:22:18.404Z,14.30
2023-01-26T16:24:45.458Z,13.43
2023-01-26T16:27:12.161Z,12.80
2023-01-26T16:29:38.918Z,13.77
2023-01-26T16:32:26.107Z,13.15
2023-01-26T16:34:52.839Z,14.02
2023-01-26T16:37:19.646Z,14.20
2023-01-26T16:39:46.418Z,14.60
2023-01-26T16:42:18.651Z,14.52
2023-01-26T16:44:46.274Z,14.68
2023-01-26T16:47:13.037Z,15.37
2023-01-26T16:49:39.800Z,14.52
2023-01-26T16:52:09.403Z,15.98
2023-01-26T16:54:36.663Z,15.23
2023-01-26T16:57:03.400Z,14.50
2023-01-26T16:59:30.063Z,14.25
2023-01-26T17:01:57.170Z,15.75
2023-01-26T17:04:23.971Z,14.25
2023-01-26T17:06:50.700Z,14.55
2023-01-26T17:09:17.414Z,13.82
2023-01-26T17:11:44.126Z,12.20
2023-01-26T17:14:12.174Z,12.98
2023-01-26T17:16:39.584Z,13.15
2023-01-26T17:19:09.006Z,14.13
2023-01-26T17:21:36.411Z,13.95
2023-01-26T17:24:03.594Z,14.05
2023-01-26T17:26:30.451Z,13.15
2023-01-26T17:28:57.198Z,12.07
2023-01-26T17:31:24.951Z,13.37
2023-01-26T17:33:51.956Z,13.05
2023-01-26T17:36:20.026Z,12.48
2023-01-26T17:38:48.414Z,12.75
2023-01-26T17:41:16.378Z,12.32
2023-01-26T17:43:43.118Z,12.98
2023-01-26T17:46:15.236Z,12.73
2023-01-26T17:48:44.862Z,12.93
2023-01-26T17:51:14.154Z,13.40
2023-01-26T17:53:42.812Z,12.32
2023-01-26T17:56:11.651Z,13.57
2023-01-26T17:58:38.886Z,12.93
2023-01-26T18:01:07.532Z,12.95
2023-01-26T18:03:35.004Z,13.25
2023-01-26T18:06:01.853Z,12.35
2023-01-26T18:08:28.745Z,11.50
2023-01-26T18:11:00.247Z,12.73
2023-01-26T18:13:27.284Z,13.38
2023-01-26T18:15:54.931Z,13.43
2023-01-26T18:18:27.390Z,13.33
2023-01-26T18:20:54.523Z,13.13
2023-01-26T18:23:22.762Z,13.20
2023-01-26T18:25:49.976Z,14.50
2023-01-26T18:28:16.784Z,12.88
2023-01-26T18:30:43.484Z,11.63
2023-01-26T18:33:10.136Z,11.97
2023-01-26T18:35:36.989Z,12.35
2023-01-26T18:38:03.763Z,10.27
2023-01-26T18:40:31.003Z,10.40
2023-01-26T18:42:57.941Z,9.75
2023-01-26T18:45:24.875Z,8.90
2023-01-26T18:47:51.525Z,9.00
2023-01-26T18:50:18.473Z,8.45
2023-01-26T18:52:45.165Z,9.13
2023-01-26T18:55:12.386Z,9.32
2023-01-26T18:57:39.525Z,9.00
2023-01-26T19:00:08.181Z,8.95
2023-01-26T19:02:38.423Z,8.63
2023-01-26T19:05:07.093Z,9.20
2023-01-26T19:07:34.550Z,8.43
2023-01-26T19:10:01.534Z,8.88
2023-01-26T19:12:28.189Z,8.05
2023-01-26T19:14:54.854Z,7.70
2023-01-26T19:17:21.599Z,7.38
2023-01-26T19:19:48.463Z,20.90
2023-01-26T19:22:15.049Z,23.05
2023-01-26T19:24:43.011Z,14.93
2023-01-26T19:27:10.520Z,9.38
2023-01-26T19:29:37.240Z,9.15
2023-01-26T19:32:04.260Z,8.00
2023-01-26T19:34:32.175Z,8.10
2023-01-26T19:36:58.976Z,16.33
2023-01-26T19:39:25.672Z,12.73
2023-01-26T19:41:52.605Z,10.88
2023-01-26T19:44:19.478Z,12.68
2023-01-26T19:46:46.242Z,7.43
2023-01-26T19:49:13.483Z,7.30
2023-01-26T19:51:40.324Z,7.10
2023-01-26T19:54:07.111Z,7.20
2023-01-26T19:56:36.239Z,6.88
2023-01-26T19:59:05.678Z,7.30
2023-01-26T20:01:32.843Z,6.00
2023-01-26T20:04:02.401Z,6.72
2023-01-26T20:06:32.099Z,6.53
2023-01-26T20:08:59.439Z,6.50
2023-01-26T20:11:29.417Z,6.45
2023-01-26T20:13:57.783Z,6.40
2023-01-26T20:16:27.914Z,5.90
2023-01-26T20:18:56.061Z,5.97
2023-01-26T20:21:23.615Z,5.33
2023-01-26T20:23:54.987Z,5.80
2023-01-26T20:26:23.393Z,6.30
2023-01-26T20:28:50.343Z,6.28
2023-01-26T20:31:19.662Z,5.97
2023-01-26T20:33:49.158Z,5.80
2023-01-26T20:36:18.457Z,6.05
2023-01-26T20:38:46.384Z,5.70
2023-01-26T20:41:14.257Z,5.70
2023-01-26T20:43:49.494Z,5.93
2023-01-26T20:46:24.441Z,5.90
2023-01-26T20:48:51.859Z,5.47
2023-01-26T20:51:21.196Z,5.13
2023-01-26T20:53:49.433Z,5.40
2023-01-26T20:56:17.677Z,5.10
2023-01-26T20:58:44.331Z,5.05
2023-01-26T21:01:14.393Z,5.40
2023-01-26T21:03:41.840Z,5.10
2023-01-26T21:06:10.929Z,4.88
2023-01-26T21:08:38.120Z,5.65
2023-01-26T21:11:08.131Z,5.25
2023-01-26T21:13:35.996Z,5.30
2023-01-26T21:16:03.916Z,5.10
2023-01-26T21:18:30.591Z,5.78
2023-01-26T21:20:59.553Z,5.47
2023-01-26T21:23:26.740Z,5.05
2023-01-26T21:26:03.537Z,5.35
2023-01-26T21:28:31.146Z,5.20
2023-01-26T21:31:03.123Z,5.40
2023-01-26T21:33:31.148Z,5.70
2023-01-26T21:35:59.670Z,5.50
2023-01-26T21:38:26.939Z,5.30
2023-01-26T21:41:03.472Z,5.47
2023-01-26T21:43:30.745Z,5.57
2023-01-26T21:45:58.763Z,5.70
2023-01-26T21:48:31.698Z,5.43
2023-01-26T21:51:18.745Z,5.60
2023-01-26T21:53:45.740Z,6.10
2023-01-26T21:56:14.830Z,5.88
2023-01-26T21:59:02.064Z,5.72
2023-01-26T22:01:31.376Z,5.50
2023-01-26T22:04:00.317Z,5.75
2023-01-26T22:06:27.353Z,6.20
2023-01-26T22:08:54.356Z,5.82
2023-01-26T22:11:21.624Z,6.47
2023-01-26T22:13:48.532Z,5.32
2023-01-26T22:16:15.797Z,5.67
2023-01-26T22:18:43.843Z,5.97
2023-01-26T22:21:10.558Z,5.80
2023-01-26T22:23:39.199Z,5.80
2023-01-26T22:26:07.799Z,6.35
2023-01-26T22:28:34.619Z,6.87
2023-01-26T22:31:03.544Z,6.95
2023-01-26T22:33:30.711Z,5.63
2023-01-26T22:36:01.442Z,6.47
2023-01-26T22:38:28.966Z,6.18
2023-01-26T22:40:55.806Z,5.75
2023-01-26T22:43:22.552Z,6.95
2023-01-26T22:45:49.758Z,6.70
2023-01-26T22:48:17.387Z,7.28
2023-01-26T22:50:44.703Z,7.00
2023-01-26T22:53:12.304Z,6.85
2023-01-26T22:55:40.953Z,7.55
2023-01-26T22:58:08.502Z,7.60
2023-01-26T23:00:36.099Z,6.60
2023-01-26T23:03:02.935Z,7.10
2023-01-26T23:05:32.761Z,6.60
2023-01-26T23:07:59.768Z,7.05
2023-01-26T23:10:26.579Z,7.18
2023-01-26T23:12:53.430Z,6.72
2023-01-26T23:15:20.165Z,7.82
2023-01-26T23:17:50.495Z,7.75
2023-01-26T23:20:19.172Z,8.77
2023-01-26T23:22:46.379Z,8.93
2023-01-26T23:25:33.797Z,9.90
2023-01-26T23:28:03.318Z,9.77
2023-01-26T23:30:30.249Z,9.73
2023-01-26T23:32:57.046Z,10.35
2023-01-26T23:35:26.245Z,10.52
2023-01-26T23:37:53.278Z,11.00
2023-01-26T23:40:20.143Z,10.52
2023-01-26T23:43:03.318Z,11.20
2023-01-26T23:45:34.153Z,10.88
2023-01-26T23:48:01.117Z,10.60
2023-01-26T23:50:28.202Z,9.40
2023-01-26T23:52:55.053Z,10.95
2023-01-26T23:55:21.911Z,10.63
2023-01-26T23:57:48.627Z,10.57
